sensor_id;sensor_type;location;lat;lon;timestamp;pressure;altitude;pressure_sealevel;temperature;humidity
4471;BME280;2248;42.698;23.292;2022-10-19T00:00:17;95790.28;;;4.75;100.00
4471;BME280;2248;42.698;23.292;2022-10-19T00:02:42;95779.41;;;4.67;100.00
4471;BME280;2248;42.698;23.292;2022-10-19T00:05:08;95795.22;;;4.72;100.00
4471;BME280;2248;42.698;23.292;2022-10-19T00:07:33;95790.91;;;4.68;100.00
4471;BME280;2248;42.698;23.292;2022-10-19T00:09:58;95792.13;;;4.70;100.00
4471;BME280;2248;42.698;23.292;2022-10-19T00:12:24;95793.59;;;4.68;100.00
4471;BME280;2248;42.698;23.292;2022-10-19T00:14:49;95794.97;;;4.62;100.00
4471;BME280;2248;42.698;23.292;2022-10-19T00:17:15;95785.38;;;4.61;100.00
4471;BME280;2248;42.698;23.292;2022-10-19T00:19:40;95790.81;;;4.64;100.00
4471;BME280;2248;42.698;23.292;2022-10-19T00:22:05;95777.38;;;4.61;100.00
4471;BME280;2248;42.698;23.292;2022-10-19T00:24:31;95771.91;;;4.57;100.00
4471;BME280;2248;42.698;23.292;2022-10-19T00:26:56;95772.78;;;4.61;100.00
4471;BME280;2248;42.698;23.292;2022-10-19T00:29:22;95770.03;;;4.58;100.00
4471;BME280;2248;42.698;23.292;2022-10-19T00:31:49;95758.03;;;4.51;100.00
4471;BME280;2248;42.698;23.292;2022-10-19T00:34:14;95755.28;;;4.48;100.00
4471;BME280;2248;42.698;23.292;2022-10-19T00:36:40;95734.41;;;4.38;100.00
4471;BME280;2248;42.698;23.292;2022-10-19T00:39:09;95758.28;;;4.46;100.00
4471;BME280;2248;42.698;23.292;2022-10-19T00:41:36;95747.94;;;4.45;100.00
4471;BME280;2248;42.698;23.292;2022-10-19T00:46:39;95740.16;;;4.40;100.00
4471;BME280;2248;42.698;23.292;2022-10-19T00:49:11;95730.44;;;4.31;100.00
4471;BME280;2248;42.698;23.292;2022-10-19T00:51:44;95714.91;;;4.21;100.00
4471;BME280;2248;42.698;23.292;2022-10-19T00:54:11;95720.69;;;4.23;100.00
4471;BME280;2248;42.698;23.292;2022-10-19T00:56:39;95721.03;;;4.22;100.00
4471;BME280;2248;42.698;23.292;2022-10-19T00:59:06;95727.50;;;4.21;100.00
4471;BME280;2248;42.698;23.292;2022-10-19T01:01:33;95727.06;;;4.18;100.00
4471;BME280;2248;42.698;23.292;2022-10-19T01:03:59;95712.06;;;4.14;100.00
4471;BME280;2248;42.698;23.292;2022-10-19T01:06:25;95707.41;;;4.11;100.00
4471;BME280;2248;42.698;23.292;2022-10-19T01:08:51;95718.53;;;4.13;100.00
4471;BME280;2248;42.698;23.292;2022-10-19T01:16:45;95710.75;;;4.08;100.00
4471;BME280;2248;42.698;23.292;2022-10-19T01:27:52;95688.88;;;4.02;100.00
4471;BME280;2248;42.698;23.292;2022-10-19T01:38:14;95686.19;;;3.86;100.00
4471;BME280;2248;42.698;23.292;2022-10-19T01:41:11;95676.50;;;3.81;100.00
4471;BME280;2248;42.698;23.292;2022-10-19T01:44:00;95677.56;;;3.77;100.00
4471;BME280;2248;42.698;23.292;2022-10-19T01:46:37;95682.47;;;3.75;100.00
4471;BME280;2248;42.698;23.292;2022-10-19T01:49:10;95680.84;;;3.70;100.00
4471;BME280;2248;42.698;23.292;2022-10-19T01:51:42;95668.25;;;3.71;100.00
4471;BME280;2248;42.698;23.292;2022-10-19T01:54:12;95656.16;;;3.61;100.00
4471;BME280;2248;42.698;23.292;2022-10-19T01:56:40;95675.03;;;3.68;100.00
4471;BME280;2248;42.698;23.292;2022-10-19T01:59:08;95668.94;;;3.67;100.00
4471;BME280;2248;42.698;23.292;2022-10-19T02:01:37;95654.88;;;3.55;100.00
4471;BME280;2248;42.698;23.292;2022-10-19T02:04:05;95667.31;;;3.63;100.00
4471;BME280;2248;42.698;23.292;2022-10-19T02:06:31;95659.53;;;3.58;100.00
4471;BME280;2248;42.698;23.292;2022-10-19T02:08:56;95661.44;;;3.57;100.00
4471;BME280;2248;42.698;23.292;2022-10-19T02:11:22;95671.00;;;3.58;100.00
4471;BME280;2248;42.698;23.292;2022-10-19T02:13:55;95640.03;;;3.41;100.00
4471;BME280;2248;42.698;23.292;2022-10-19T02:16:26;95660.97;;;3.55;100.00
4471;BME280;2248;42.698;23.292;2022-10-19T02:18:54;95644.63;;;3.41;100.00
4471;BME280;2248;42.698;23.292;2022-10-19T02:21:20;95654.28;;;3.45;100.00
4471;BME280;2248;42.698;23.292;2022-10-19T02:23:46;95658.06;;;3.44;100.00
4471;BME280;2248;42.698;23.292;2022-10-19T02:26:11;95656.41;;;3.40;100.00
4471;BME280;2248;42.698;23.292;2022-10-19T02:28:37;95647.59;;;3.39;100.00
4471;BME280;2248;42.698;23.292;2022-10-19T02:31:03;95647.88;;;3.34;100.00
4471;BME280;2248;42.698;23.292;2022-10-19T02:33:29;95662.53;;;3.40;100.00
4471;BME280;2248;42.698;23.292;2022-10-19T02:35:56;95635.78;;;3.24;100.00
4471;BME280;2248;42.698;23.292;2022-10-19T02:38:22;95660.53;;;3.37;100.00
4471;BME280;2248;42.698;23.292;2022-10-19T02:41:03;95665.13;;;3.37;100.00
4471;BME280;2248;42.698;23.292;2022-10-19T02:43:33;95662.78;;;3.35;100.00
4471;BME280;2248;42.698;23.292;2022-10-19T02:46:05;95655.13;;;3.34;100.00
4471;BME280;2248;42.698;23.292;2022-10-19T02:48:33;95673.69;;;3.30;100.00
4471;BME280;2248;42.698;23.292;2022-10-19T02:51:00;95661.13;;;3.30;100.00
4471;BME280;2248;42.698;23.292;2022-10-19T02:53:25;95652.25;;;3.26;100.00
4471;BME280;2248;42.698;23.292;2022-10-19T02:55:51;95655.63;;;3.23;100.00
4471;BME280;2248;42.698;23.292;2022-10-19T02:58:16;95643.72;;;3.21;100.00
4471;BME280;2248;42.698;23.292;2022-10-19T03:00:42;95651.81;;;3.24;100.00
4471;BME280;2248;42.698;23.292;2022-10-19T03:03:08;95643.59;;;3.17;100.00
4471;BME280;2248;42.698;23.292;2022-10-19T03:05:33;95645.16;;;3.18;100.00
4471;BME280;2248;42.698;23.292;2022-10-19T03:07:59;95648.25;;;3.20;100.00
4471;BME280;2248;42.698;23.292;2022-10-19T03:10:24;95653.59;;;3.20;100.00
4471;BME280;2248;42.698;23.292;2022-10-19T03:12:50;95640.41;;;3.11;100.00
4471;BME280;2248;42.698;23.292;2022-10-19T03:15:16;95648.94;;;3.17;100.00
4471;BME280;2248;42.698;23.292;2022-10-19T03:17:41;95655.75;;;3.14;100.00
4471;BME280;2248;42.698;23.292;2022-10-19T03:20:07;95643.91;;;3.00;100.00
4471;BME280;2248;42.698;23.292;2022-10-19T03:22:33;95660.13;;;3.07;100.00
4471;BME280;2248;42.698;23.292;2022-10-19T03:24:58;95653.69;;;2.95;100.00
4471;BME280;2248;42.698;23.292;2022-10-19T03:27:24;95651.03;;;2.95;100.00
4471;BME280;2248;42.698;23.292;2022-10-19T03:29:49;95650.53;;;2.90;100.00
4471;BME280;2248;42.698;23.292;2022-10-19T03:32:15;95645.19;;;2.90;100.00
4471;BME280;2248;42.698;23.292;2022-10-19T03:34:40;95648.97;;;2.89;100.00
4471;BME280;2248;42.698;23.292;2022-10-19T03:37:06;95638.97;;;2.86;100.00
4471;BME280;2248;42.698;23.292;2022-10-19T03:39:32;95643.03;;;2.95;100.00
4471;BME280;2248;42.698;23.292;2022-10-19T03:41:58;95647.59;;;2.95;100.00
4471;BME280;2248;42.698;23.292;2022-10-19T03:44:23;95624.75;;;2.82;100.00
4471;BME280;2248;42.698;23.292;2022-10-19T03:46:49;95650.69;;;2.97;100.00
4471;BME280;2248;42.698;23.292;2022-10-19T03:49:14;95644.50;;;2.93;100.00
4471;BME280;2248;42.698;23.292;2022-10-19T03:51:40;95643.72;;;2.92;100.00
4471;BME280;2248;42.698;23.292;2022-10-19T03:54:07;95642.19;;;2.91;100.00
4471;BME280;2248;42.698;23.292;2022-10-19T03:56:34;95642.84;;;2.88;100.00
4471;BME280;2248;42.698;23.292;2022-10-19T03:59:01;95621.97;;;2.78;100.00
4471;BME280;2248;42.698;23.292;2022-10-19T04:01:32;95645.94;;;2.90;100.00
4471;BME280;2248;42.698;23.292;2022-10-19T04:03:59;95629.31;;;2.81;100.00
4471;BME280;2248;42.698;23.292;2022-10-19T04:06:28;95640.06;;;2.85;100.00
4471;BME280;2248;42.698;23.292;2022-10-19T04:08:54;95635.06;;;2.83;100.00
4471;BME280;2248;42.698;23.292;2022-10-19T04:11:23;95639.31;;;2.84;100.00
4471;BME280;2248;42.698;23.292;2022-10-19T04:13:51;95644.53;;;2.81;100.00
4471;BME280;2248;42.698;23.292;2022-10-19T04:16:17;95639.53;;;2.79;100.00
4471;BME280;2248;42.698;23.292;2022-10-19T04:18:43;95638.78;;;2.78;100.00
4471;BME280;2248;42.698;23.292;2022-10-19T04:21:19;95629.13;;;2.74;100.00
4471;BME280;2248;42.698;23.292;2022-10-19T04:23:45;95625.31;;;2.75;100.00
4471;BME280;2248;42.698;23.292;2022-10-19T04:26:10;95626.00;;;2.72;100.00
4471;BME280;2248;42.698;23.292;2022-10-19T04:28:35;95624.00;;;2.69;100.00
4471;BME280;2248;42.698;23.292;2022-10-19T04:31:04;95621.34;;;2.69;100.00
4471;BME280;2248;42.698;23.292;2022-10-19T04:33:30;95595.38;;;2.53;100.00
4471;BME280;2248;42.698;23.292;2022-10-19T04:36:00;95621.00;;;2.70;100.00
4471;BME280;2248;42.698;23.292;2022-10-19T04:38:26;95614.34;;;2.64;100.00
4471;BME280;2248;42.698;23.292;2022-10-19T04:40:52;95617.09;;;2.68;100.00
4471;BME280;2248;42.698;23.292;2022-10-19T04:43:17;95621.25;;;2.65;100.00
4471;BME280;2248;42.698;23.292;2022-10-19T04:45:43;95620.13;;;2.66;100.00
4471;BME280;2248;42.698;23.292;2022-10-19T04:48:08;95619.00;;;2.67;100.00
4471;BME280;2248;42.698;23.292;2022-10-19T04:50:34;95614.00;;;2.66;100.00
4471;BME280;2248;42.698;23.292;2022-10-19T04:52:59;95617.09;;;2.68;100.00
4471;BME280;2248;42.698;23.292;2022-10-19T04:55:24;95618.66;;;2.69;100.00
4471;BME280;2248;42.698;23.292;2022-10-19T04:57:50;95624.53;;;2.74;100.00
4471;BME280;2248;42.698;23.292;2022-10-19T05:00:15;95614.91;;;2.70;100.00
4471;BME280;2248;42.698;23.292;2022-10-19T05:02:45;95625.97;;;2.84;100.00
4471;BME280;2248;42.698;23.292;2022-10-19T05:05:12;95624.00;;;2.97;100.00
4471;BME280;2248;42.698;23.292;2022-10-19T05:07:37;95617.66;;;3.02;100.00
4471;BME280;2248;42.698;23.292;2022-10-19T05:10:03;95611.63;;;3.05;100.00
4471;BME280;2248;42.698;23.292;2022-10-19T05:12:29;95614.38;;;3.08;100.00
4471;BME280;2248;42.698;23.292;2022-10-19T05:14:54;95602.06;;;3.04;100.00
4471;BME280;2248;42.698;23.292;2022-10-19T05:17:20;95601.03;;;3.08;100.00
4471;BME280;2248;42.698;23.292;2022-10-19T05:19:45;95598.56;;;3.16;100.00
4471;BME280;2248;42.698;23.292;2022-10-19T05:22:10;95604.19;;;3.26;100.00
4471;BME280;2248;42.698;23.292;2022-10-19T05:24:36;95608.94;;;3.49;100.00
4471;BME280;2248;42.698;23.292;2022-10-19T05:27:01;95612.22;;;3.58;100.00
4471;BME280;2248;42.698;23.292;2022-10-19T05:29:26;95603.75;;;3.56;100.00
4471;BME280;2248;42.698;23.292;2022-10-19T05:31:52;95608.69;;;3.70;100.00
4471;BME280;2248;42.698;23.292;2022-10-19T05:34:18;95614.28;;;3.81;100.00
4471;BME280;2248;42.698;23.292;2022-10-19T05:36:43;95617.88;;;3.89;100.00
4471;BME280;2248;42.698;23.292;2022-10-19T05:39:14;95619.69;;;4.00;100.00
4471;BME280;2248;42.698;23.292;2022-10-19T05:41:44;95627.66;;;4.16;100.00
4471;BME280;2248;42.698;23.292;2022-10-19T05:44:15;95624.13;;;4.28;100.00
4471;BME280;2248;42.698;23.292;2022-10-19T05:46:41;95624.88;;;4.45;100.00
4471;BME280;2248;42.698;23.292;2022-10-19T05:49:07;95622.84;;;4.58;100.00
4471;BME280;2248;42.698;23.292;2022-10-19T05:51:32;95628.84;;;4.70;100.00
4471;BME280;2248;42.698;23.292;2022-10-19T05:53:58;95628.28;;;4.81;100.00
4471;BME280;2248;42.698;23.292;2022-10-19T05:56:27;95626.56;;;4.92;100.00
4471;BME280;2248;42.698;23.292;2022-10-19T05:58:54;95620.53;;;4.95;100.00
4471;BME280;2248;42.698;23.292;2022-10-19T06:01:20;95642.34;;;5.17;100.00
4471;BME280;2248;42.698;23.292;2022-10-19T06:03:49;95624.28;;;5.14;100.00
4471;BME280;2248;42.698;23.292;2022-10-19T06:06:15;95634.88;;;5.26;100.00
4471;BME280;2248;42.698;23.292;2022-10-19T06:08:40;95645.97;;;5.48;100.00
4471;BME280;2248;42.698;23.292;2022-10-19T06:11:11;95651.03;;;5.76;100.00
4471;BME280;2248;42.698;23.292;2022-10-19T06:13:37;95647.00;;;5.86;100.00
4471;BME280;2248;42.698;23.292;2022-10-19T06:16:04;95659.13;;;5.99;100.00
4471;BME280;2248;42.698;23.292;2022-10-19T06:18:30;95666.91;;;6.08;100.00
4471;BME280;2248;42.698;23.292;2022-10-19T06:21:01;95668.63;;;6.20;100.00
4471;BME280;2248;42.698;23.292;2022-10-19T06:23:26;95674.16;;;6.31;100.00
4471;BME280;2248;42.698;23.292;2022-10-19T06:25:52;95672.75;;;6.40;100.00
4471;BME280;2248;42.698;23.292;2022-10-19T06:28:17;95675.53;;;6.48;100.00
4471;BME280;2248;42.698;23.292;2022-10-19T06:30:42;95679.91;;;6.59;100.00
4471;BME280;2248;42.698;23.292;2022-10-19T06:33:08;95668.66;;;6.77;100.00
4471;BME280;2248;42.698;23.292;2022-10-19T06:35:33;95673.81;;;6.89;100.00
4471;BME280;2248;42.698;23.292;2022-10-19T06:37:59;95676.59;;;6.96;100.00
4471;BME280;2248;42.698;23.292;2022-10-19T06:40:25;95666.25;;;6.98;100.00
4471;BME280;2248;42.698;23.292;2022-10-19T06:42:50;95675.66;;;7.15;100.00
4471;BME280;2248;42.698;23.292;2022-10-19T06:45:16;95653.34;;;7.11;100.00
4471;BME280;2248;42.698;23.292;2022-10-19T06:47:42;95671.59;;;7.29;100.00
4471;BME280;2248;42.698;23.292;2022-10-19T06:50:07;95666.13;;;7.22;100.00
4471;BME280;2248;42.698;23.292;2022-10-19T06:52:33;95645.69;;;7.13;100.00
4471;BME280;2248;42.698;23.292;2022-10-19T06:54:59;95657.13;;;7.41;100.00
4471;BME280;2248;42.698;23.292;2022-10-19T06:57:25;95653.00;;;7.54;100.00
4471;BME280;2248;42.698;23.292;2022-10-19T06:59:51;95657.38;;;7.66;100.00
4471;BME280;2248;42.698;23.292;2022-10-19T07:02:16;95614.97;;;7.52;100.00
4471;BME280;2248;42.698;23.292;2022-10-19T07:04:42;95654.09;;;7.87;100.00
4471;BME280;2248;42.698;23.292;2022-10-19T07:07:07;95635.00;;;8.03;100.00
4471;BME280;2248;42.698;23.292;2022-10-19T07:09:33;95645.47;;;8.15;100.00
4471;BME280;2248;42.698;23.292;2022-10-19T07:11:58;95647.88;;;8.31;100.00
4471;BME280;2248;42.698;23.292;2022-10-19T07:14:23;95641.41;;;8.36;100.00
4471;BME280;2248;42.698;23.292;2022-10-19T07:16:50;95623.34;;;8.44;100.00
4471;BME280;2248;42.698;23.292;2022-10-19T07:19:16;95640.06;;;8.64;100.00
4471;BME280;2248;42.698;23.292;2022-10-19T07:21:41;95644.00;;;8.84;100.00
4471;BME280;2248;42.698;23.292;2022-10-19T07:24:08;95642.50;;;8.98;100.00
4471;BME280;2248;42.698;23.292;2022-10-19T07:26:34;95631.78;;;9.12;100.00
4471;BME280;2248;42.698;23.292;2022-10-19T07:28:59;95636.81;;;9.24;100.00
4471;BME280;2248;42.698;23.292;2022-10-19T07:31:26;95638.03;;;9.38;100.00
4471;BME280;2248;42.698;23.292;2022-10-19T07:33:57;95632.25;;;9.43;100.00
4471;BME280;2248;42.698;23.292;2022-10-19T07:36:24;95626.47;;;9.41;100.00
4471;BME280;2248;42.698;23.292;2022-10-19T07:38:50;95626.50;;;9.55;100.00
4471;BME280;2248;42.698;23.292;2022-10-19T07:41:18;95619.59;;;9.69;100.00
4471;BME280;2248;42.698;23.292;2022-10-19T07:43:45;95619.59;;;9.83;100.00
4471;BME280;2248;42.698;23.292;2022-10-19T07:46:13;95611.88;;;10.00;100.00
4471;BME280;2248;42.698;23.292;2022-10-19T07:48:40;95607.22;;;10.15;100.00
4471;BME280;2248;42.698;23.292;2022-10-19T07:51:07;95602.59;;;10.26;100.00
4471;BME280;2248;42.698;23.292;2022-10-19T07:53:33;95602.22;;;10.27;100.00
4471;BME280;2248;42.698;23.292;2022-10-19T07:56:08;95603.34;;;10.52;100.00
4471;BME280;2248;42.698;23.292;2022-10-19T07:58:34;95601.75;;;10.61;100.00
4471;BME280;2248;42.698;23.292;2022-10-19T08:01:06;95597.50;;;10.75;100.00
4471;BME280;2248;42.698;23.292;2022-10-19T08:03:33;95588.56;;;10.81;100.00
4471;BME280;2248;42.698;23.292;2022-10-19T08:06:08;95596.59;;;11.03;100.00
4471;BME280;2248;42.698;23.292;2022-10-19T08:08:34;95589.97;;;11.15;100.00
4471;BME280;2248;42.698;23.292;2022-10-19T08:11:12;95595.25;;;11.40;100.00
4471;BME280;2248;42.698;23.292;2022-10-19T08:13:38;95583.56;;;11.54;100.00
4471;BME280;2248;42.698;23.292;2022-10-19T08:16:04;95586.47;;;11.78;100.00
4471;BME280;2248;42.698;23.292;2022-10-19T08:18:29;95597.59;;;11.91;100.00
4471;BME280;2248;42.698;23.292;2022-10-19T08:20:55;95584.72;;;12.06;100.00
4471;BME280;2248;42.698;23.292;2022-10-19T08:23:21;95581.19;;;12.16;100.00
4471;BME280;2248;42.698;23.292;2022-10-19T08:25:47;95589.13;;;12.34;100.00
4471;BME280;2248;42.698;23.292;2022-10-19T08:28:13;95575.78;;;12.50;100.00
4471;BME280;2248;42.698;23.292;2022-10-19T08:30:39;95580.63;;;12.70;100.00
4471;BME280;2248;42.698;23.292;2022-10-19T08:33:04;95575.34;;;12.90;100.00
4471;BME280;2248;42.698;23.292;2022-10-19T08:35:33;95564.28;;;13.08;100.00
4471;BME280;2248;42.698;23.292;2022-10-19T08:37:59;95572.91;;;13.30;100.00
4471;BME280;2248;42.698;23.292;2022-10-19T08:40:28;95568.38;;;13.51;100.00
4471;BME280;2248;42.698;23.292;2022-10-19T08:43:23;95574.53;;;13.78;96.65
4471;BME280;2248;42.698;23.292;2022-10-19T08:46:02;95566.13;;;13.97;93.68
4471;BME280;2248;42.698;23.292;2022-10-19T08:48:35;95564.69;;;14.12;90.67
4471;BME280;2248;42.698;23.292;2022-10-19T08:51:04;95564.88;;;14.45;89.87
4471;BME280;2248;42.698;23.292;2022-10-19T08:53:32;95566.09;;;14.64;86.89
4471;BME280;2248;42.698;23.292;2022-10-19T09:03:46;95549.06;;;15.37;83.76
4471;BME280;2248;42.698;23.292;2022-10-19T09:08:50;95543.38;;;15.64;81.37
4471;BME280;2248;42.698;23.292;2022-10-19T09:11:22;95537.81;;;15.88;81.46
4471;BME280;2248;42.698;23.292;2022-10-19T09:13:50;95550.19;;;16.21;79.49
4471;BME280;2248;42.698;23.292;2022-10-19T09:16:19;95547.31;;;16.71;77.81
4471;BME280;2248;42.698;23.292;2022-10-19T09:18:45;95535.50;;;19.08;70.66
4471;BME280;2248;42.698;23.292;2022-10-19T09:21:19;95509.00;;;21.40;55.62
4471;BME280;2248;42.698;23.292;2022-10-19T09:24:04;95537.69;;;23.38;44.08
4471;BME280;2248;42.698;23.292;2022-10-19T09:26:35;95569.06;;;24.47;37.62
4471;BME280;2248;42.698;23.292;2022-10-19T09:29:10;95553.34;;;25.00;34.96
4471;BME280;2248;42.698;23.292;2022-10-19T09:31:40;95541.47;;;25.26;33.56
4471;BME280;2248;42.698;23.292;2022-10-19T09:36:48;95533.03;;;26.82;31.34
4471;BME280;2248;42.698;23.292;2022-10-19T09:39:16;95530.84;;;27.14;30.39
4471;BME280;2248;42.698;23.292;2022-10-19T09:41:48;95531.06;;;27.79;28.91
4471;BME280;2248;42.698;23.292;2022-10-19T09:44:16;95538.41;;;27.59;28.32
4471;BME280;2248;42.698;23.292;2022-10-19T09:46:49;95527.34;;;27.48;28.94
4471;BME280;2248;42.698;23.292;2022-10-19T09:49:40;95535.91;;;27.56;27.92
4471;BME280;2248;42.698;23.292;2022-10-19T09:52:31;95532.84;;;27.99;27.57
4471;BME280;2248;42.698;23.292;2022-10-19T09:57:32;95528.13;;;28.94;26.50
4471;BME280;2248;42.698;23.292;2022-10-19T10:00:05;95525.25;;;27.88;27.14
4471;BME280;2248;42.698;23.292;2022-10-19T10:02:32;95519.25;;;27.39;27.27
4471;BME280;2248;42.698;23.292;2022-10-19T10:05:06;95510.78;;;26.54;29.12
4471;BME280;2248;42.698;23.292;2022-10-19T10:07:38;95501.63;;;25.82;30.32
4471;BME280;2248;42.698;23.292;2022-10-19T10:10:34;95497.88;;;23.95;32.16
4471;BME280;2248;42.698;23.292;2022-10-19T10:13:02;95502.22;;;22.86;34.59
4471;BME280;2248;42.698;23.292;2022-10-19T10:16:16;95491.19;;;21.93;39.38
4471;BME280;2248;42.698;23.292;2022-10-19T10:18:23;95449.25;;;20.83;44.65
4471;BME280;2248;42.698;23.292;2022-10-19T10:21:10;95475.50;;;20.75;46.49
4471;BME280;2248;42.698;23.292;2022-10-19T10:23:36;95472.31;;;20.58;46.72
4471;BME280;2248;42.698;23.292;2022-10-19T10:26:04;95478.72;;;20.36;48.22
4471;BME280;2248;42.698;23.292;2022-10-19T10:28:47;95458.91;;;20.13;49.87
4471;BME280;2248;42.698;23.292;2022-10-19T10:31:13;95449.31;;;20.09;50.26
4471;BME280;2248;42.698;23.292;2022-10-19T10:33:39;95445.50;;;19.97;51.23
4471;BME280;2248;42.698;23.292;2022-10-19T10:36:09;95442.75;;;19.88;52.39
4471;BME280;2248;42.698;23.292;2022-10-19T10:38:48;95439.41;;;19.83;53.40
4471;BME280;2248;42.698;23.292;2022-10-19T10:41:18;95430.44;;;19.92;52.76
4471;BME280;2248;42.698;23.292;2022-10-19T10:43:58;95427.22;;;20.03;50.73
4471;BME280;2248;42.698;23.292;2022-10-19T10:46:58;95422.78;;;20.24;49.10
4471;BME280;2248;42.698;23.292;2022-10-19T10:49:31;95438.34;;;20.27;46.72
4471;BME280;2248;42.698;23.292;2022-10-19T10:52:06;95419.91;;;20.18;44.82
4471;BME280;2248;42.698;23.292;2022-10-19T10:54:34;95409.97;;;20.21;43.10
4471;BME280;2248;42.698;23.292;2022-10-19T11:04:51;95392.84;;;20.54;40.98
4471;BME280;2248;42.698;23.292;2022-10-19T11:07:23;95399.88;;;20.55;39.22
4471;BME280;2248;42.698;23.292;2022-10-19T11:09:56;95395.63;;;20.35;38.20
4471;BME280;2248;42.698;23.292;2022-10-19T11:12:50;95387.84;;;20.43;38.88
4471;BME280;2248;42.698;23.292;2022-10-19T11:15:22;95387.97;;;20.49;38.57
4471;BME280;2248;42.698;23.292;2022-10-19T11:18:21;95388.72;;;20.68;38.73
4471;BME280;2248;42.698;23.292;2022-10-19T11:24:05;95382.72;;;20.79;36.80
4471;BME280;2248;42.698;23.292;2022-10-19T11:32:02;95377.41;;;20.75;35.09
4471;BME280;2248;42.698;23.292;2022-10-19T11:34:52;95363.31;;;20.82;34.03
4471;BME280;2248;42.698;23.292;2022-10-19T11:37:29;95373.63;;;21.06;33.35
4471;BME280;2248;42.698;23.292;2022-10-19T11:40:10;95375.97;;;21.22;33.43
4471;BME280;2248;42.698;23.292;2022-10-19T11:42:48;95359.00;;;21.24;32.72
4471;BME280;2248;42.698;23.292;2022-10-19T11:45:28;95357.47;;;21.23;32.31
4471;BME280;2248;42.698;23.292;2022-10-19T11:50:52;95348.78;;;21.73;30.83
4471;BME280;2248;42.698;23.292;2022-10-19T11:55:56;95346.06;;;22.18;29.58
4471;BME280;2248;42.698;23.292;2022-10-19T11:58:26;95333.09;;;22.03;29.49
4471;BME280;2248;42.698;23.292;2022-10-19T12:06:51;95348.38;;;22.49;30.44
4471;BME280;2248;42.698;23.292;2022-10-19T12:12:34;95334.72;;;22.40;29.92
4471;BME280;2248;42.698;23.292;2022-10-19T12:17:37;95336.59;;;22.19;29.73
4471;BME280;2248;42.698;23.292;2022-10-19T12:20:12;95332.41;;;22.23;30.81
4471;BME280;2248;42.698;23.292;2022-10-19T12:22:40;95332.13;;;22.21;31.87
4471;BME280;2248;42.698;23.292;2022-10-19T12:25:11;95329.81;;;21.90;33.11
4471;BME280;2248;42.698;23.292;2022-10-19T12:27:39;95332.09;;;21.91;32.65
4471;BME280;2248;42.698;23.292;2022-10-19T12:30:11;95325.19;;;21.96;32.29
4471;BME280;2248;42.698;23.292;2022-10-19T12:32:48;95313.41;;;21.96;32.39
4471;BME280;2248;42.698;23.292;2022-10-19T12:35:23;95330.78;;;21.87;33.15
4471;BME280;2248;42.698;23.292;2022-10-19T12:37:57;95323.84;;;21.91;33.39
4471;BME280;2248;42.698;23.292;2022-10-19T12:40:47;95323.84;;;21.91;33.52
4471;BME280;2248;42.698;23.292;2022-10-19T12:45:52;95312.13;;;22.36;34.35
4471;BME280;2248;42.698;23.292;2022-10-19T12:48:20;95307.16;;;22.55;34.40
4471;BME280;2248;42.698;23.292;2022-10-19T12:53:22;95298.16;;;22.39;34.91
4471;BME280;2248;42.698;23.292;2022-10-19T12:56:02;95315.06;;;22.47;35.42
4471;BME280;2248;42.698;23.292;2022-10-19T12:58:33;95309.00;;;22.28;35.37
4471;BME280;2248;42.698;23.292;2022-10-19T13:01:03;95311.25;;;22.15;36.39
4471;BME280;2248;42.698;23.292;2022-10-19T13:03:38;95296.91;;;21.96;36.10
4471;BME280;2248;42.698;23.292;2022-10-19T13:06:10;95313.69;;;21.83;35.96
4471;BME280;2248;42.698;23.292;2022-10-19T13:09:04;95300.22;;;21.70;36.60
4471;BME280;2248;42.698;23.292;2022-10-19T13:11:27;95305.19;;;21.56;36.85
4471;BME280;2248;42.698;23.292;2022-10-19T13:14:06;95297.47;;;21.46;37.57
4471;BME280;2248;42.698;23.292;2022-10-19T13:17:08;95277.41;;;21.15;38.38
4471;BME280;2248;42.698;23.292;2022-10-19T13:19:34;95279.66;;;21.17;39.07
4471;BME280;2248;42.698;23.292;2022-10-19T13:29:24;95284.88;;;20.90;38.58
4471;BME280;2248;42.698;23.292;2022-10-19T13:31:50;95290.72;;;20.83;39.66
4471;BME280;2248;42.698;23.292;2022-10-19T13:34:15;95279.13;;;20.79;40.51
4471;BME280;2248;42.698;23.292;2022-10-19T13:37:01;95284.47;;;20.83;41.20
4471;BME280;2248;42.698;23.292;2022-10-19T13:39:28;95285.56;;;20.76;41.63
4471;BME280;2248;42.698;23.292;2022-10-19T13:41:54;95275.81;;;20.75;42.05
4471;BME280;2248;42.698;23.292;2022-10-19T13:44:22;95276.25;;;20.73;42.07
4471;BME280;2248;42.698;23.292;2022-10-19T13:47:20;95294.44;;;20.71;42.30
4471;BME280;2248;42.698;23.292;2022-10-19T13:50:25;95277.50;;;20.63;42.24
4471;BME280;2248;42.698;23.292;2022-10-19T13:53:04;95264.25;;;20.62;42.72
4471;BME280;2248;42.698;23.292;2022-10-19T14:06:24;95262.50;;;20.49;43.43
4471;BME280;2248;42.698;23.292;2022-10-19T14:11:50;95271.06;;;20.42;43.54
4471;BME280;2248;42.698;23.292;2022-10-19T14:17:02;95250.69;;;20.25;45.72
4471;BME280;2248;42.698;23.292;2022-10-19T14:19:40;95267.28;;;20.30;46.41
4471;BME280;2248;42.698;23.292;2022-10-19T14:24:50;95265.16;;;20.25;47.74
4471;BME280;2248;42.698;23.292;2022-10-19T14:27:22;95262.13;;;20.23;48.43
4471;BME280;2248;42.698;23.292;2022-10-19T14:29:50;95264.47;;;20.15;49.36
4471;BME280;2248;42.698;23.292;2022-10-19T14:32:21;95267.78;;;20.19;50.17
4471;BME280;2248;42.698;23.292;2022-10-19T14:34:48;95257.44;;;20.05;50.75
4471;BME280;2248;42.698;23.292;2022-10-19T14:37:22;95267.84;;;20.01;51.78
4471;BME280;2248;42.698;23.292;2022-10-19T14:42:35;95250.66;;;19.73;50.97
4471;BME280;2248;42.698;23.292;2022-10-19T14:45:00;95269.09;;;19.81;51.24
4471;BME280;2248;42.698;23.292;2022-10-19T14:47:26;95279.28;;;19.72;50.46
4471;BME280;2248;42.698;23.292;2022-10-19T14:49:51;95274.72;;;19.68;50.17
4471;BME280;2248;42.698;23.292;2022-10-19T14:52:36;95277.50;;;19.50;50.93
4471;BME280;2248;42.698;23.292;2022-10-19T14:55:12;95276.09;;;19.45;52.31
4471;BME280;2248;42.698;23.292;2022-10-19T14:57:40;95283.41;;;19.39;52.44
4471;BME280;2248;42.698;23.292;2022-10-19T15:00:16;95279.91;;;19.29;53.12
4471;BME280;2248;42.698;23.292;2022-10-19T15:02:45;95279.44;;;19.22;54.21
4471;BME280;2248;42.698;23.292;2022-10-19T15:05:22;95267.44;;;19.01;55.02
4471;BME280;2248;42.698;23.292;2022-10-19T15:07:49;95290.06;;;18.92;56.41
4471;BME280;2248;42.698;23.292;2022-10-19T15:10:25;95299.50;;;18.91;57.61